Moosonee, Ontario

5:00 PM EDT on August 01, 2015 (GMT -0400)
Moosonee | | Change Station
CLOSE
Current Station
Airport
Location: Moosonee,
Elevation: 30 ft
Nearby Weather Stations

Elev 30 ft 51.29 °N, 80.61 °W | Updated 5 minutes ago

Light Rain
Light Rain
72 °F
Feels Like 72 °F
N
6
Wind Variable Wind from Variable

Today
High -- | Low -- °F
--% Chance of Precip.
Yesterday
High -- | Low -- °F
Precip. -- in
5:46 AM 9:09 PM
Full, 97% visible
Pressure 29.55 in
Visibility 5.0 miles
Clouds Few 4600 ft
Mostly Cloudy 7000 ft
Mostly Cloudy 11000 ft
Dew Point 52 °F
Humidity 50%
Rainfall 0.00 in
Snow Depth Not available.
UV 2 out of 12
Pollen Not available.
Air Quality Not available.
Flu Activity Not available.
SPECI CYMO 012055Z AUTO VRB05KT 5SM -RA FEW046 BKN070 BKN110 22/11 A2954 RMK SLP004 DENSITY ALT 1200FT

More Conditions Fewer Conditions

Pressure 29.55 in
Visibility 5.0 miles
Clouds Few 4600 ft
Mostly Cloudy 7000 ft
Mostly Cloudy 11000 ft
Dew Point 52 °F
Humidity 50%
Rainfall 0.00 in
Snow Depth Not available.
UV 2 out of 12
Pollen Not available.
Air Quality Not available.
Flu Activity Not available.
SPECI CYMO 012055Z AUTO VRB05KT 5SM -RA FEW046 BKN070 BKN110 22/11 A2954 RMK SLP004 DENSITY ALT 1200FT

More Conditions Fewer Conditions

10-Day Weather Forecast

×

Almanac

Astronomy

Aug. 01, 2015 Rise Set
Actual Time
Civil Twilight
Nautical Twilight
Astronomical Twilight
Moon
Length of Visible Light
Length of Day
Tomorrow will be .
, % of the Moon is Illuminated

Today's Extremes

Country Highs Country Lows

Community

WunderPhotos

Upload Photos

1,843,052 photos uploaded!

WunderBlogs® & News

Nearby

Air Quality

  Air Quality AQ Index Pollutant
Not available.

Snow Depth

Station Depth Elevation

Earthquake Activity

City Distance Mag. Time & Date
Minimum magnitude displayed is 2.5.

Coastal Water Temperatures

Place Temperature

Stations

Nearby Weather Stations

Station Location Temp. Windchill Dew Point Humidity Wind Precip. Elev Updated Type